Historyczne dane pomiarowe

Dodano dane terminowe – wersja testowa.

Dane z okresu 1951-2019

Wersja bazy: 1.34 [2019-03-16, lista zmian], aktualizacja planowana na 2019-04-15

Dane meteo z obszaru Polski uzyskane na podstawie danych udostępnionych przez Instytut Meteorologii i Gospodarki Wodnej – Państwowy Instytut Badawczy.

 

Wybierz Datę:    

       

TemperaturaWilgotnośćWiatrCiśnienieOpadyŚniegCzas trwania zjawisk
 Stacja t tx tn tng RH VA  wxwx mslp ppp RRR   cm mm wxwxwxwxwxwxwx
1999-08-14 14.6 21.4 5.5 3.2 73.0- 5.0 2.3---- 6.5------------
1999-08-13 14.1 19.3 10.1 5.8 81.8- 6.3 4.0---- 9.8------------
1999-08-12 16.6 21.1 13.4 10.8 75.8- 6.0 4.0---- 0.0------------
1999-08-11 17.9 21.5 14.7 13.8 80.8- 4.7 4.3---- 0.0------------
1999-08-10 20.1 27.4 13.8 9.2 76.5- 4.3 3.0---- 17.5------------
1999-08-09 21.7 28.9 16.2 14.8 77.0- 4.3 4.0---- 0.0------------
1999-08-08 22.6 29.2 16.8 15.7 74.0- 5.0 2.7---- 0.6------------
1999-08-07 20.5 27.3 13.5 10.1 76.8- 4.3 2.0---- 0.9------------
1999-08-06 19.8 26.6 11.8 8.2 74.5- 2.7 3.3---- 0.0------------
1999-08-05 21.3 30.0 11.3 6.2 53.5- 3.7 3.3---- 0.0------------
1999-08-04 20.2 29.2 10.0 5.2 54.5- 1.7 2.0---- 0.0------------
1999-08-03 20.5 28.2 12.3 9.7 56.3- 0.3 2.7---- 0.0------------
1999-08-02 20.2 27.7 12.3 11.3 56.5- 1.7 2.7---- 0.0------------
1999-08-01 21.6 28.5 14.2 13.6 54.5- 2.7 3.0---- 0.0------------
1999-07-31 21.1 28.6 11.8 8.0 52.3- 2.0 3.3---- 0.0------------
1999-07-30 19.3 27.4 9.5 5.2 55.3- 1.3 2.7---- 0.0------------
1999-07-29 18.1 25.2 10.3 9.7 56.5- 0.7 2.3---- 0.0------------
1999-07-28 17.6 23.8 10.3 5.7 69.0- 1.3 3.7---- 0.0------------
1999-07-27 14.9 21.2 6.8 3.4 75.5- 4.3 2.3---- 0.0------------
1999-07-26 18.2 24.0 15.2 14.8 79.5- 4.3 3.3---- 0.0------------
1999-07-25 20.2 25.6 13.2 9.7 72.8- 3.7 2.3---- 1.8------------
1999-07-24 15.8 17.2 13.8 13.8 86.0- 7.7 3.7---- 0.1------------
1999-07-23 15.6 19.4 10.4 7.7 83.8- 7.0 4.0---- 0.3------------
1999-07-22 17.3 22.2 12.2 9.7 62.0- 5.0 4.7---- 0.0------------
1999-07-21 20.9 26.3 16.1 15.2 78.3- 5.3 3.3---- 0.3------------
1999-07-20 22.6 28.7 14.5 10.1 61.5- 3.7 3.0---- 0.0------------
1999-07-19 23.8 31.5 14.7 10.7 60.8- 3.0 3.7---- 0.0------------
1999-07-18 20.4 28.3 12.3 9.1 69.8- 2.0 2.7---- 0.0------------
1999-07-17 18.6 24.5 12.9 8.8 77.3- 5.7 2.7---- 0.0------------
1999-07-16 15.6 21.1 8.7 4.2 73.0- 6.3 2.3---- 1.2------------
1999-07-15 16.2 20.8 10.9 7.2 79.5- 6.0 3.3---- 0.5------------
1999-07-14 20.7 24.3 17.6 16.3 82.3- 5.7 2.7---- 2.8------------
1999-07-13 23.0 28.4 19.2 16.0 66.8- 6.0 3.0---- 9.2------------
1999-07-12 24.2 30.0 17.3 15.8 55.3- 3.3 2.7---- 0.0------------
1999-07-11 22.7 28.9 14.7 13.6 52.8- 1.7 4.3---- 0.0------------
1999-07-10 20.0 27.4 10.7 9.9 60.5- 1.0 4.7---- 0.0------------
1999-07-09 18.7 22.8 14.2 13.0 60.8- 2.3 6.3---- 0.0------------
1999-07-08 17.7 22.3 11.9 8.2 70.0- 4.0 3.3---- 0.0------------
1999-07-07 17.3 21.9 12.3 10.6 85.0- 7.0 2.0---- 0.0------------
1999-07-06 20.2 26.2 16.7 14.5 91.8- 7.7 2.0---- 1.2------------
1999-07-05 25.0 34.4 17.8 17.2 67.8- 5.3 5.0---- 39.8------------
1999-07-04 22.2 26.9 16.9 15.2 71.8- 4.3 3.7---- 0.0------------
1999-07-03 20.3 26.3 13.3 10.9 73.8- 4.7 3.3---- 0.0------------
1999-07-02 16.3 21.9 11.0 10.3 81.0- 6.7 1.0---- 0.0------------
1999-07-01 17.4 21.2 13.5 10.8 89.0- 6.7 1.7---- 0.7------------
1999-06-30 20.3 26.3 15.7 14.8 72.8- 4.3 3.7---- 0.6------------
1999-06-29 17.4 23.3 9.7 5.3 68.5- 4.3 2.3---- 0.0------------
1999-06-28 19.7 26.7 15.9 15.1 81.8- 5.0 3.3---- 17.7------------
1999-06-27 19.1 24.2 11.0 8.6 72.0- 6.0 4.3---- 2.1------------
1999-06-26 12.9 19.2 4.5 0.9 78.0- 6.3 3.3---- 0.0------------
1999-06-25 11.5 17.2 4.7 1.2 76.0- 3.7 2.3---- 0.0------------
1999-06-24 11.7 17.7 2.9 -0.1 71.5- 6.0 1.7---- 0.0------------
1999-06-23 13.1 16.7 8.1 3.7 71.8- 4.0 4.7---- 0.0------------
1999-06-22 12.1 15.8 6.8 3.7 84.8- 6.7 3.0---- 0.2------------
1999-06-21 15.8 21.8 12.6 10.1 84.8- 6.0 2.7---- 0.0------------
1999-06-20 17.5 23.7 8.3 5.3 66.8- 4.0 4.7---- 8.0------------
1999-06-19 16.3 21.2 10.5 7.2 77.0- 5.7 2.3---- 0.0------------
1999-06-18 16.9 21.7 13.2 11.8 84.5- 6.3 2.3---- 0.0------------
1999-06-17 17.5 23.9 7.9 5.1 65.0- 3.3 1.3---- 3.0------------
1999-06-16 16.6 23.2 7.6 4.0 68.5- 3.0 2.7---- 0.0------------
274.1 ms

 

Źródłem pochodzenia danych jest Instytut Meteorologii i Gospodarki Wodnej – Państwowy Instytut Badawczy. Dane Instytutu Meteorologii i Gospodarki Wodnej – Państwowego Instytutu Badawczego zostały przetworzone.

Dane źródłowe można odnaleźć na stronie https://dane.imgw.pl